createdAt,value
2017-12-02T00:01:08.967Z,55.00
2017-12-02T00:03:36.536Z,55.20
2017-12-02T00:06:04.087Z,55.40
2017-12-02T00:08:31.648Z,55.10
2017-12-02T00:10:59.180Z,55.00
2017-12-02T00:13:26.728Z,54.90
2017-12-02T00:15:54.236Z,54.80
2017-12-02T00:18:21.759Z,54.90
2017-12-02T00:20:49.316Z,54.80
2017-12-02T00:23:16.871Z,53.90
2017-12-02T00:25:44.381Z,53.80
2017-12-02T00:28:11.933Z,52.90
2017-12-02T00:30:40.228Z,52.50
2017-12-02T00:33:07.776Z,52.50
2017-12-02T00:35:36.078Z,53.00
2017-12-02T00:38:03.639Z,52.90
2017-12-02T00:40:31.505Z,53.20
2017-12-02T00:42:59.013Z,53.20
2017-12-02T00:45:26.603Z,53.00
2017-12-02T00:47:54.901Z,53.40
2017-12-02T00:50:22.435Z,53.40
2017-12-02T00:52:50.824Z,53.20
2017-12-02T00:55:19.120Z,53.30
2017-12-02T00:57:46.677Z,53.20
2017-12-02T01:00:14.196Z,53.30
2017-12-02T01:02:41.748Z,53.10
2017-12-02T01:05:09.260Z,53.20
2017-12-02T01:07:36.776Z,53.50
2017-12-02T01:10:04.362Z,53.60
2017-12-02T01:12:31.903Z,53.40
2017-12-02T01:14:59.454Z,53.30
2017-12-02T01:17:27.770Z,53.70
2017-12-02T01:19:55.282Z,53.10
2017-12-02T01:22:23.154Z,53.10
2017-12-02T01:24:50.666Z,53.00
2017-12-02T01:27:18.224Z,52.90
2017-12-02T01:29:45.764Z,53.50
2017-12-02T01:32:13.276Z,53.00
2017-12-02T01:34:40.833Z,53.40
2017-12-02T01:37:08.350Z,53.40
2017-12-02T01:39:35.911Z,53.50
2017-12-02T01:42:03.444Z,53.70
2017-12-02T01:44:30.980Z,53.70
2017-12-02T01:46:58.504Z,53.80
2017-12-02T01:49:26.057Z,53.90
2017-12-02T01:51:53.575Z,54.10
2017-12-02T01:54:21.890Z,54.30
2017-12-02T01:56:49.416Z,54.30
2017-12-02T01:59:16.964Z,54.40
2017-12-02T02:01:44.508Z,55.00
2017-12-02T02:04:12.056Z,55.00
2017-12-02T02:06:39.583Z,55.10
2017-12-02T02:09:07.134Z,55.20
2017-12-02T02:11:34.649Z,55.20
2017-12-02T02:14:02.218Z,55.30
2017-12-02T02:16:29.724Z,55.30
2017-12-02T02:18:57.356Z,55.30
2017-12-02T02:21:24.907Z,55.40
2017-12-02T02:23:53.220Z,54.90
2017-12-02T02:26:20.773Z,54.90
2017-12-02T02:28:48.308Z,55.00
2017-12-02T02:31:16.584Z,55.50
2017-12-02T02:33:49.083Z,55.00
2017-12-02T02:36:16.623Z,55.00
2017-12-02T02:38:44.930Z,54.70
2017-12-02T02:41:12.491Z,54.70
2017-12-02T02:43:45.036Z,54.90
2017-12-02T02:46:13.345Z,54.70
2017-12-02T02:48:41.156Z,54.70
2017-12-02T02:51:08.715Z,54.40
2017-12-02T02:53:36.233Z,54.40
2017-12-02T02:56:04.101Z,54.80
2017-12-02T02:58:31.630Z,55.10
2017-12-02T03:00:59.213Z,55.10
2017-12-02T03:03:26.747Z,55.10
2017-12-02T03:05:54.316Z,55.10
2017-12-02T03:08:21.838Z,55.00
2017-12-02T03:10:49.397Z,54.90
2017-12-02T03:13:16.922Z,54.80
2017-12-02T03:15:44.481Z,54.70
2017-12-02T03:18:12.002Z,54.90
2017-12-02T03:20:40.335Z,54.90
2017-12-02T03:23:07.894Z,54.90
2017-12-02T03:25:35.465Z,55.00
2017-12-02T03:28:03.002Z,54.80
2017-12-02T03:30:30.558Z,54.80
2017-12-02T03:32:58.085Z,54.80
2017-12-02T03:35:25.661Z,54.60
2017-12-02T03:37:53.232Z,54.30
2017-12-02T03:40:20.800Z,54.40
2017-12-02T03:42:48.358Z,54.50
2017-12-02T03:45:15.938Z,54.60
2017-12-02T03:47:43.509Z,54.40
2017-12-02T03:50:11.631Z,54.70
2017-12-02T03:52:39.286Z,54.70
2017-12-02T03:55:06.806Z,54.80
2017-12-02T03:57:34.368Z,54.70
2017-12-02T04:00:01.901Z,54.70
2017-12-02T04:02:29.465Z,55.20
2017-12-02T04:04:57.064Z,54.50
2017-12-02T04:07:25.393Z,54.50
2017-12-02T04:09:52.954Z,54.50
2017-12-02T04:12:20.493Z,54.90
2017-12-02T04:14:48.076Z,54.60
2017-12-02T04:17:15.605Z,54.60
2017-12-02T04:19:43.170Z,54.60
2017-12-02T04:22:10.693Z,54.80
2017-12-02T04:24:38.266Z,55.20
2017-12-02T04:27:05.797Z,55.20
2017-12-02T04:29:33.376Z,55.20
2017-12-02T04:32:00.897Z,55.30
2017-12-02T04:34:28.429Z,55.10
2017-12-02T04:36:56.015Z,55.50
2017-12-02T04:39:23.538Z,55.30
2017-12-02T04:41:51.157Z,55.30
2017-12-02T04:44:18.698Z,56.10
2017-12-02T04:46:46.266Z,55.60
2017-12-02T04:49:13.882Z,55.50
2017-12-02T04:51:41.410Z,55.60
2017-12-02T04:54:08.956Z,55.80
2017-12-02T04:56:36.551Z,56.00
2017-12-02T04:59:04.085Z,55.50
2017-12-02T05:01:31.656Z,55.70
2017-12-02T05:03:59.999Z,55.80
2017-12-02T05:06:27.551Z,55.80
2017-12-02T05:08:55.114Z,55.90
2017-12-02T05:11:23.056Z,55.60
2017-12-02T05:13:50.597Z,55.70
2017-12-02T05:16:18.153Z,55.50
2017-12-02T05:18:45.694Z,55.40
2017-12-02T05:21:14.025Z,55.30
2017-12-02T05:23:41.612Z,55.30
2017-12-02T05:26:09.138Z,55.40
2017-12-02T05:28:36.697Z,55.30
2017-12-02T05:31:04.260Z,55.30
2017-12-02T05:33:31.790Z,55.30
2017-12-02T05:35:59.349Z,55.20
2017-12-02T05:38:26.869Z,55.30
2017-12-02T05:40:54.428Z,55.30
2017-12-02T05:43:21.953Z,55.20
2017-12-02T05:45:49.516Z,55.30
2017-12-02T05:48:17.052Z,55.30
2017-12-02T05:50:44.614Z,55.50
2017-12-02T05:53:12.129Z,55.70
2017-12-02T05:55:39.742Z,55.70
2017-12-02T05:58:07.294Z,55.40
2017-12-02T06:00:34.834Z,55.00
2017-12-02T06:03:02.390Z,54.80
2017-12-02T06:05:30.702Z,55.10
2017-12-02T06:07:58.281Z,55.10
2017-12-02T06:10:25.845Z,55.20
2017-12-02T06:12:53.367Z,55.00
2017-12-02T06:15:20.977Z,55.00
2017-12-02T06:17:48.517Z,55.20
2017-12-02T06:20:16.081Z,55.40
2017-12-02T06:22:43.614Z,55.40
2017-12-02T06:25:11.178Z,55.20
2017-12-02T06:27:38.698Z,55.00
2017-12-02T06:30:06.269Z,55.30
2017-12-02T06:32:33.834Z,55.50
2017-12-02T06:35:01.396Z,55.00
2017-12-02T06:37:28.941Z,55.50
2017-12-02T06:39:57.265Z,55.30
2017-12-02T06:42:24.793Z,55.30
2017-12-02T06:44:52.354Z,55.30
2017-12-02T06:47:19.887Z,54.80
2017-12-02T06:49:47.459Z,54.40
2017-12-02T06:52:15.773Z,54.20
2017-12-02T06:54:44.294Z,54.30
2017-12-02T06:57:11.830Z,54.40
2017-12-02T06:59:39.368Z,53.80
2017-12-02T07:02:06.941Z,53.90
2017-12-02T07:04:34.469Z,54.20
2017-12-02T07:07:02.025Z,54.20
2017-12-02T07:09:29.572Z,54.40
2017-12-02T07:11:57.856Z,54.70
2017-12-02T07:14:25.421Z,54.80
2017-12-02T07:16:53.762Z,54.60
2017-12-02T07:19:21.297Z,54.60
2017-12-02T07:21:48.873Z,54.40
2017-12-02T07:24:16.403Z,54.20
2017-12-02T07:26:44.264Z,54.00
2017-12-02T07:29:11.818Z,54.20
2017-12-02T07:31:39.377Z,54.20
2017-12-02T07:34:06.904Z,54.20
2017-12-02T07:36:35.229Z,54.10
2017-12-02T07:39:02.862Z,54.10
2017-12-02T07:41:30.408Z,54.20
2017-12-02T07:43:57.929Z,53.90
2017-12-02T07:46:25.498Z,53.60
2017-12-02T07:48:53.024Z,53.30
2017-12-02T07:51:20.666Z,53.00
2017-12-02T07:53:48.195Z,53.00
2017-12-02T07:56:15.766Z,52.70
2017-12-02T07:58:43.301Z,52.30
2017-12-02T08:01:10.874Z,52.30
2017-12-02T08:03:38.439Z,52.30
2017-12-02T08:06:06.045Z,52.70
2017-12-02T08:08:33.593Z,52.60
2017-12-02T08:11:01.203Z,52.80
2017-12-02T08:13:28.768Z,52.40
2017-12-02T08:15:56.357Z,52.30
2017-12-02T08:18:23.916Z,52.30
2017-12-02T08:20:51.480Z,52.50
2017-12-02T08:23:19.007Z,52.30
2017-12-02T08:25:46.569Z,52.50
2017-12-02T08:28:14.674Z,52.60
2017-12-02T08:30:42.287Z,52.50
2017-12-02T08:33:09.868Z,52.80
2017-12-02T08:35:38.149Z,53.80
2017-12-02T08:38:05.712Z,53.40
2017-12-02T08:40:34.025Z,53.40
2017-12-02T08:43:01.610Z,53.40
2017-12-02T08:45:29.157Z,53.50
2017-12-02T08:47:56.721Z,53.20
2017-12-02T08:50:24.301Z,53.70
2017-12-02T08:52:51.877Z,53.70
2017-12-02T08:55:19.457Z,53.60
2017-12-02T08:57:47.786Z,53.50
2017-12-02T09:00:15.351Z,53.50
2017-12-02T09:02:42.894Z,53.30
2017-12-02T09:05:10.462Z,53.40
2017-12-02T09:07:38.089Z,53.40
2017-12-02T09:10:05.665Z,53.40
2017-12-02T09:12:33.246Z,53.20
2017-12-02T09:15:01.246Z,53.10
2017-12-02T09:17:28.824Z,53.30
2017-12-02T09:19:56.345Z,53.00
2017-12-02T09:22:23.928Z,53.20
2017-12-02T09:24:52.238Z,53.10
2017-12-02T09:27:19.830Z,52.80
2017-12-02T09:29:47.575Z,53.40
2017-12-02T09:32:15.158Z,53.20
2017-12-02T09:34:42.685Z,52.90
2017-12-02T09:37:10.264Z,52.80
2017-12-02T09:39:37.832Z,52.60
2017-12-02T09:42:05.477Z,53.00
2017-12-02T09:44:33.063Z,52.90
2017-12-02T09:47:00.589Z,52.60
2017-12-02T09:49:28.145Z,52.70
2017-12-02T09:51:55.706Z,52.90
2017-12-02T09:54:23.280Z,52.70
2017-12-02T09:56:50.855Z,52.50
2017-12-02T09:59:18.425Z,52.10
2017-12-02T10:01:45.977Z,52.00
2017-12-02T10:04:13.541Z,52.00
2017-12-02T10:06:41.176Z,51.40
2017-12-02T10:09:08.694Z,51.60
2017-12-02T10:11:37.025Z,52.10
2017-12-02T10:14:04.657Z,52.10
2017-12-02T10:16:32.437Z,52.50
2017-12-02T10:18:59.995Z,52.40
2017-12-02T10:21:27.513Z,52.20
2017-12-02T10:23:55.134Z,52.40
2017-12-02T10:26:22.779Z,51.90
2017-12-02T10:28:50.355Z,51.70
2017-12-02T10:31:17.913Z,51.90
2017-12-02T10:33:45.489Z,51.90
2017-12-02T10:36:13.020Z,52.20
2017-12-02T10:38:40.637Z,52.30
2017-12-02T10:41:08.190Z,52.70
2017-12-02T10:43:35.754Z,52.70
2017-12-02T10:46:03.762Z,52.80
2017-12-02T10:48:31.334Z,53.30
2017-12-02T10:50:58.876Z,53.40
2017-12-02T10:53:26.447Z,53.50
2017-12-02T10:55:54.000Z,53.80
2017-12-02T10:58:21.738Z,53.80
2017-12-02T11:00:49.291Z,53.90
2017-12-02T11:03:17.607Z,53.30
2017-12-02T11:05:45.178Z,53.30
2017-12-02T11:08:12.781Z,53.20
2017-12-02T11:10:40.305Z,53.00
2017-12-02T11:13:07.941Z,52.90
2017-12-02T11:15:35.454Z,52.90
2017-12-02T11:18:03.065Z,53.00
2017-12-02T11:20:30.606Z,52.80
2017-12-02T11:22:58.902Z,52.40
2017-12-02T11:25:26.734Z,52.40
2017-12-02T11:27:55.061Z,52.80
2017-12-02T11:30:22.611Z,53.40
2017-12-02T11:32:50.181Z,53.20
2017-12-02T11:35:17.709Z,52.90
2017-12-02T11:37:46.029Z,53.30
2017-12-02T11:40:13.582Z,53.20
2017-12-02T11:42:41.354Z,52.60
2017-12-02T11:45:08.875Z,52.50
2017-12-02T11:47:36.558Z,53.00
2017-12-02T11:50:04.130Z,52.80
2017-12-02T11:52:31.742Z,52.40
2017-12-02T11:54:59.216Z,52.00
2017-12-02T11:57:26.777Z,51.90
2017-12-02T11:59:54.313Z,52.20
2017-12-02T12:02:21.877Z,52.40
2017-12-02T12:04:50.360Z,52.00
2017-12-02T12:07:17.936Z,52.00
2017-12-02T12:09:45.473Z,52.30
2017-12-02T12:12:13.812Z,52.20
2017-12-02T12:14:41.381Z,52.00
2017-12-02T12:17:08.925Z,52.10
2017-12-02T12:19:36.450Z,52.50
2017-12-02T12:22:04.007Z,52.10
2017-12-02T12:24:31.643Z,52.10
2017-12-02T12:26:59.234Z,51.90
2017-12-02T12:29:26.802Z,51.50
2017-12-02T12:31:54.405Z,51.70
2017-12-02T12:34:22.234Z,52.00
2017-12-02T12:36:49.783Z,51.70
2017-12-02T12:39:17.377Z,51.90
2017-12-02T12:41:44.953Z,51.70
2017-12-02T12:44:12.498Z,51.90
2017-12-02T12:46:40.089Z,52.00
2017-12-02T12:49:07.666Z,52.20
2017-12-02T12:51:35.966Z,51.30
2017-12-02T12:54:03.520Z,51.90
2017-12-02T12:56:31.099Z,51.20
2017-12-02T12:58:58.665Z,51.70
2017-12-02T13:01:26.246Z,51.50
2017-12-02T13:03:53.784Z,51.70
2017-12-02T13:06:21.343Z,51.70
2017-12-02T13:08:48.900Z,50.80
2017-12-02T13:11:16.461Z,51.30
2017-12-02T13:13:44.023Z,52.20
2017-12-02T13:16:11.569Z,52.10
2017-12-02T13:18:39.524Z,51.80
2017-12-02T13:21:07.065Z,51.50
2017-12-02T13:23:34.612Z,51.70
2017-12-02T13:26:02.208Z,51.50
2017-12-02T13:28:29.764Z,51.30
2017-12-02T13:30:57.285Z,51.30
2017-12-02T13:33:24.853Z,51.30
2017-12-02T13:35:53.167Z,51.40
2017-12-02T13:38:20.709Z,51.90
2017-12-02T13:40:48.245Z,51.30
2017-12-02T13:43:15.793Z,51.30
2017-12-02T13:45:43.347Z,50.90
2017-12-02T13:48:10.917Z,50.90
2017-12-02T13:50:38.467Z,50.80
2017-12-02T13:53:06.037Z,50.70
2017-12-02T13:55:33.558Z,51.00
2017-12-02T13:58:01.147Z,51.30
2017-12-02T14:00:28.677Z,51.10
2017-12-02T14:02:56.596Z,51.10
2017-12-02T14:05:24.158Z,51.30
2017-12-02T14:07:51.704Z,51.60
2017-12-02T14:10:19.298Z,51.30
2017-12-02T14:12:46.898Z,52.20
2017-12-02T14:15:14.434Z,51.40
2017-12-02T14:17:41.994Z,50.60
2017-12-02T14:20:09.557Z,51.10
2017-12-02T14:22:37.080Z,51.20
2017-12-02T14:25:05.411Z,50.80
2017-12-02T14:27:32.969Z,50.70
2017-12-02T14:30:00.528Z,51.00
2017-12-02T14:32:28.050Z,50.80
2017-12-02T14:34:55.597Z,50.70
2017-12-02T14:37:23.961Z,50.70
2017-12-02T14:39:51.774Z,50.60
2017-12-02T14:42:19.349Z,50.40
2017-12-02T14:44:47.305Z,50.50
2017-12-02T14:47:14.829Z,50.40
2017-12-02T14:49:43.157Z,50.40
2017-12-02T14:52:10.722Z,50.40
2017-12-02T14:54:38.733Z,50.40
2017-12-02T14:57:07.022Z,50.10
2017-12-02T14:59:35.360Z,50.00
2017-12-02T15:02:02.886Z,49.90
2017-12-02T15:04:30.442Z,50.00
2017-12-02T15:06:57.969Z,49.80
2017-12-02T15:09:25.586Z,49.90
2017-12-02T15:11:53.111Z,49.80
2017-12-02T15:14:20.669Z,49.70
2017-12-02T15:16:48.542Z,49.30
2017-12-02T15:19:16.155Z,49.40
2017-12-02T15:21:43.694Z,49.20
2017-12-02T15:24:12.172Z,49.10
2017-12-02T15:26:39.705Z,49.50
2017-12-02T15:29:07.271Z,50.00
2017-12-02T15:31:34.840Z,50.60
2017-12-02T15:34:02.406Z,51.00
2017-12-02T15:36:29.980Z,51.10
2017-12-02T15:38:57.542Z,51.00
2017-12-02T15:41:25.084Z,51.00
2017-12-02T15:43:52.879Z,51.10
2017-12-02T15:46:20.440Z,51.40
2017-12-02T15:48:47.997Z,51.30
2017-12-02T15:51:15.569Z,51.30
2017-12-02T15:53:43.117Z,51.20
2017-12-02T15:56:10.637Z,51.60
2017-12-02T15:58:38.400Z,51.60
2017-12-02T16:01:05.988Z,51.30
2017-12-02T16:03:33.559Z,51.40
2017-12-02T16:06:01.090Z,51.60
2017-12-02T16:08:28.650Z,51.50
2017-12-02T16:10:56.182Z,51.50
2017-12-02T16:13:23.760Z,51.20
2017-12-02T16:15:51.306Z,51.30
2017-12-02T16:18:18.845Z,51.30
2017-12-02T16:20:46.479Z,50.90
2017-12-02T16:23:14.083Z,51.00
2017-12-02T16:25:41.651Z,51.10
2017-12-02T16:28:09.204Z,50.80
2017-12-02T16:30:36.802Z,50.60
2017-12-02T16:33:04.337Z,50.90
2017-12-02T16:35:31.897Z,51.00
2017-12-02T16:37:59.454Z,51.00
2017-12-02T16:40:27.441Z,50.80
2017-12-02T16:42:55.001Z,50.50
2017-12-02T16:45:22.853Z,51.00
2017-12-02T16:47:50.419Z,50.90
2017-12-02T16:50:17.953Z,51.00
2017-12-02T16:52:45.528Z,50.80
2017-12-02T16:55:13.077Z,49.80
2017-12-02T16:57:40.612Z,49.40
2017-12-02T17:00:08.567Z,49.90
2017-12-02T17:02:36.092Z,49.20
2017-12-02T17:05:03.646Z,49.30
2017-12-02T17:07:31.505Z,49.10
2017-12-02T17:09:59.064Z,49.20
2017-12-02T17:12:26.633Z,49.00
2017-12-02T17:14:54.165Z,48.80
2017-12-02T17:17:21.750Z,48.60
2017-12-02T17:19:49.336Z,48.70
2017-12-02T17:22:16.884Z,48.80
2017-12-02T17:24:44.446Z,48.90
2017-12-02T17:27:11.970Z,48.80
2017-12-02T17:29:39.501Z,48.30
2017-12-02T17:32:07.074Z,48.60
2017-12-02T17:34:34.609Z,48.90
2017-12-02T17:37:02.185Z,48.80
2017-12-02T17:39:30.535Z,48.50
2017-12-02T17:41:58.108Z,48.50
2017-12-02T17:44:25.632Z,48.20
2017-12-02T17:46:53.194Z,48.50
2017-12-02T17:49:20.780Z,48.70
2017-12-02T17:51:48.316Z,48.80
2017-12-02T17:54:15.862Z,48.70
2017-12-02T17:56:43.438Z,49.00
2017-12-02T17:59:10.997Z,49.20
2017-12-02T18:01:38.557Z,49.20
2017-12-02T18:04:06.091Z,49.40
2017-12-02T18:06:33.613Z,49.30
2017-12-02T18:09:01.207Z,49.40
2017-12-02T18:11:28.731Z,49.20
2017-12-02T18:13:57.053Z,49.20
2017-12-02T18:16:24.573Z,49.10
2017-12-02T18:18:52.896Z,48.90
2017-12-02T18:21:20.603Z,48.80
2017-12-02T18:23:48.202Z,48.70
2017-12-02T18:26:15.733Z,48.70
2017-12-02T18:28:43.288Z,48.90
2017-12-02T18:31:10.844Z,48.50
2017-12-02T18:33:39.144Z,48.60
2017-12-02T18:36:06.660Z,48.50
2017-12-02T18:38:34.264Z,48.30
2017-12-02T18:41:01.792Z,48.60
2017-12-02T18:43:29.425Z,48.60
2017-12-02T18:45:56.948Z,48.80
2017-12-02T18:48:24.500Z,48.70
2017-12-02T18:50:52.086Z,48.70
2017-12-02T18:53:19.664Z,48.50
2017-12-02T18:55:47.205Z,48.60
2017-12-02T18:58:14.778Z,48.90
2017-12-02T19:00:42.351Z,48.80
2017-12-02T19:03:09.901Z,48.70
2017-12-02T19:05:37.504Z,49.00
2017-12-02T19:08:05.797Z,49.20
2017-12-02T19:10:33.685Z,49.20
2017-12-02T19:13:01.265Z,49.60
2017-12-02T19:15:28.824Z,49.60
2017-12-02T19:17:56.425Z,49.20
2017-12-02T19:20:23.954Z,49.20
2017-12-02T19:22:51.514Z,49.10
2017-12-02T19:25:19.108Z,48.80
2017-12-02T19:27:46.692Z,48.70
2017-12-02T19:30:14.218Z,49.00
2017-12-02T19:32:41.757Z,48.40
2017-12-02T19:35:09.335Z,48.00
2017-12-02T19:37:36.883Z,47.80
2017-12-02T19:40:04.417Z,47.70
2017-12-02T19:42:31.997Z,47.80
2017-12-02T19:44:59.546Z,48.40
2017-12-02T19:47:27.100Z,48.40
2017-12-02T19:49:54.625Z,48.80
2017-12-02T19:52:22.182Z,48.80
2017-12-02T19:54:49.710Z,48.80
2017-12-02T19:57:17.278Z,48.80
2017-12-02T19:59:44.798Z,48.90
2017-12-02T20:02:12.362Z,48.70
2017-12-02T20:04:39.935Z,48.80
2017-12-02T20:07:07.518Z,48.50
2017-12-02T20:09:35.870Z,48.60
2017-12-02T20:12:03.442Z,48.60
2017-12-02T20:14:31.057Z,49.00
2017-12-02T20:16:58.642Z,48.80
2017-12-02T20:19:26.158Z,48.10
2017-12-02T20:21:53.735Z,48.00
2017-12-02T20:24:21.350Z,48.00
2017-12-02T20:26:48.918Z,47.60
2017-12-02T20:29:17.210Z,48.00
2017-12-02T20:31:44.729Z,48.00
2017-12-02T20:34:12.344Z,47.80
2017-12-02T20:36:39.874Z,47.80
2017-12-02T20:39:07.452Z,47.80
2017-12-02T20:41:34.976Z,47.80
2017-12-02T20:44:02.586Z,48.00
2017-12-02T20:46:30.182Z,47.40
2017-12-02T20:48:57.715Z,47.10
2017-12-02T20:51:25.315Z,47.30
2017-12-02T20:53:52.861Z,47.10
2017-12-02T20:56:20.482Z,47.20
2017-12-02T20:58:48.112Z,46.60
2017-12-02T21:01:16.405Z,46.50
2017-12-02T21:03:43.938Z,47.10
2017-12-02T21:06:11.486Z,46.50
2017-12-02T21:08:39.298Z,46.30
2017-12-02T21:11:06.843Z,46.50
2017-12-02T21:13:34.405Z,46.90
2017-12-02T21:16:02.837Z,47.20
2017-12-02T21:18:30.414Z,47.20
2017-12-02T21:20:57.981Z,47.00
2017-12-02T21:23:25.677Z,47.10
2017-12-02T21:25:53.235Z,47.10
2017-12-02T21:28:21.536Z,46.70
2017-12-02T21:30:49.097Z,46.80
2017-12-02T21:33:16.650Z,46.90
2017-12-02T21:35:44.169Z,47.30
2017-12-02T21:38:11.728Z,47.00
2017-12-02T21:40:39.254Z,47.20
2017-12-02T21:43:06.828Z,47.30
2017-12-02T21:45:34.389Z,48.20
2017-12-02T21:48:01.926Z,48.00
2017-12-02T21:50:29.524Z,48.40
2017-12-02T21:52:57.062Z,48.40
2017-12-02T21:55:24.614Z,48.60
2017-12-02T21:57:52.132Z,48.80
2017-12-02T22:00:19.719Z,49.00
2017-12-02T22:02:47.297Z,49.20
2017-12-02T22:05:14.821Z,49.40
2017-12-02T22:07:42.377Z,48.90
2017-12-02T22:10:09.908Z,48.60
2017-12-02T22:12:38.236Z,48.00
2017-12-02T22:15:05.760Z,47.90
2017-12-02T22:17:34.084Z,48.20
2017-12-02T22:20:01.641Z,48.20
2017-12-02T22:22:29.166Z,47.90
2017-12-02T22:24:56.807Z,48.10
2017-12-02T22:27:25.172Z,48.00
2017-12-02T22:29:52.788Z,48.00
2017-12-02T22:32:20.377Z,47.50
2017-12-02T22:34:47.933Z,46.60
2017-12-02T22:37:15.528Z,46.00
2017-12-02T22:39:43.050Z,45.50
2017-12-02T22:42:10.705Z,45.70
2017-12-02T22:44:38.308Z,45.20
2017-12-02T22:47:06.686Z,46.10
2017-12-02T22:49:34.981Z,45.40
2017-12-02T22:52:02.517Z,45.40
2017-12-02T22:54:30.851Z,45.70
2017-12-02T22:57:03.486Z,45.50
2017-12-02T22:59:31.040Z,45.50
2017-12-02T23:01:59.356Z,45.50
2017-12-02T23:04:27.062Z,46.00
2017-12-02T23:06:54.687Z,45.70
2017-12-02T23:09:22.245Z,45.80
2017-12-02T23:11:49.808Z,45.90
2017-12-02T23:14:17.330Z,46.40
2017-12-02T23:16:45.670Z,45.80
2017-12-02T23:21:40.736Z,45.80
2017-12-02T23:24:08.289Z,45.40
2017-12-02T23:26:35.833Z,45.90
2017-12-02T23:29:04.152Z,45.90
2017-12-02T23:31:31.838Z,45.90
2017-12-02T23:33:59.415Z,45.90
2017-12-02T23:36:26.975Z,45.70
2017-12-02T23:38:54.534Z,45.60
2017-12-02T23:41:22.140Z,45.90
2017-12-02T23:43:49.622Z,46.00
2017-12-02T23:46:17.175Z,46.10
2017-12-02T23:48:44.732Z,45.70
2017-12-02T23:51:12.258Z,45.30
2017-12-02T23:53:40.578Z,45.40
2017-12-02T23:56:08.137Z,45.30
2017-12-02T23:58:35.662Z,45.10
